KMNV

Monroe County Airport

Madisonville, Tennessee, USA
METAR KMNV 201115Z AUTO 33021G28KT 10SM BKN022 OVC027 M01/M05 A2986 RMK A01
Observed Flight Rules
Jan-20 @ 11:15 UTC (29 minutes ago) Marginal Visual Flight Rules
Wind Visibility Clouds
330° at 21 knots
 Gusting to 28 knots
10 miles
  • Broken at 2,200' AGL
  • Overcast at 2,700' AGL
Temperatures Readings
Current -1°C / 30°F
Dewpoint -5°C / 23°F
Humidity 75%
Altimeter 29.86" Hg
Pressure 1011.22 hPa
Elevation 314
METAR KMNV 201115Z AUTO 33021G28KT 10SM BKN022 OVC027 M01/M05 A2986 RMK A01
Observed Flight Rules
Jan-20 @ 11:15 UTC
(29 minutes ago)
MVFR
Wind Visibility
330° at 21 knots
 Gusting to 28 knots
10 miles
Clouds
  • Broken at 2,200' AGL
  • Overcast at 2,700' AGL
Temperature Dewpoint
-1°C / 30°F -5°C / 23°F
Humidity Altimeter Pressure
75% 29.86" Hg 1011.22 hPa